createdAt,value
2024-02-21T00:03:35.776Z,321.3
2024-02-21T00:09:07.263Z,327.8
2024-02-21T00:14:39.179Z,290.9
2024-02-21T00:20:13.909Z,322.4
2024-02-21T00:25:42.277Z,317.9
2024-02-21T00:31:13.952Z,298.7
2024-02-21T00:36:45.447Z,276.9
2024-02-21T00:42:17.830Z,338.8
2024-02-21T00:47:53.215Z,298.1
2024-02-21T00:53:24.967Z,323.1
2024-02-21T00:58:56.569Z,316.2
2024-02-21T01:04:28.036Z,314.7
2024-02-21T01:09:59.704Z,278.0
2024-02-21T01:15:31.307Z,319.4
2024-02-21T01:21:03.976Z,284.3
2024-02-21T01:26:34.619Z,311.4
2024-02-21T01:32:06.507Z,316.9
2024-02-21T01:37:38.116Z,316.4
2024-02-21T01:43:09.418Z,241.3
2024-02-21T01:48:48.592Z,264.5
2024-02-21T01:54:19.190Z,294.2
2024-02-21T01:59:50.806Z,256.7
2024-02-21T02:05:22.420Z,266.2
2024-02-21T02:10:54.706Z,243.5
2024-02-21T02:16:25.872Z,278.6
2024-02-21T02:21:57.472Z,280.6
2024-02-21T02:27:35.722Z,312.5
2024-02-21T02:33:07.885Z,281.9
2024-02-21T02:38:38.970Z,336.4
2024-02-21T02:44:10.619Z,246.7
2024-02-21T02:49:48.757Z,285.1
2024-02-21T02:55:20.556Z,329.0
2024-02-21T03:00:51.988Z,367.9
2024-02-21T03:06:23.719Z,346.8
2024-02-21T03:11:55.186Z,334.8
2024-02-21T03:17:26.626Z,332.8
2024-02-21T03:22:58.522Z,324.3
2024-02-21T03:28:30.130Z,310.7
2024-02-21T03:34:01.587Z,299.0
2024-02-21T03:39:33.216Z,304.3
2024-02-21T03:45:04.887Z,299.8
2024-02-21T03:50:41.174Z,303.3
2024-02-21T03:56:12.496Z,349.2
2024-02-21T04:01:44.247Z,305.6
2024-02-21T04:07:15.896Z,279.6
2024-02-21T04:12:47.429Z,316.8
2024-02-21T04:18:19.170Z,293.3
2024-02-21T04:23:50.711Z,313.5
2024-02-21T04:29:22.297Z,294.2
2024-02-21T04:34:54.540Z,307.4
2024-02-21T04:40:25.685Z,263.0
2024-02-21T04:45:57.189Z,296.5
2024-02-21T04:51:37.812Z,270.1
2024-02-21T04:57:06.843Z,239.7
2024-02-21T05:02:38.529Z,226.0
2024-02-21T05:08:10.327Z,206.8
2024-02-21T05:13:41.857Z,190.1
2024-02-21T05:19:13.751Z,187.2
2024-02-21T05:24:45.150Z,191.1
2024-02-21T05:30:16.699Z,225.8
2024-02-21T05:35:48.289Z,236.7
2024-02-21T05:41:20.150Z,247.4
2024-02-21T05:46:51.909Z,277.0
2024-02-21T05:52:27.743Z,265.3
2024-02-21T05:57:59.188Z,280.1
2024-02-21T06:03:31.456Z,261.1
2024-02-21T06:09:02.804Z,267.6
2024-02-21T06:14:34.240Z,259.4
2024-02-21T06:20:05.904Z,179.6
2024-02-21T06:25:38.242Z,119.8
2024-02-21T06:31:09.172Z,181.1
2024-02-21T06:36:41.119Z,161.6
2024-02-21T06:42:12.233Z,174.0
2024-02-21T06:47:44.083Z,128.7
2024-02-21T06:53:19.975Z,224.8
2024-02-21T06:58:51.726Z,233.4
2024-02-21T07:04:23.249Z,265.1
2024-02-21T07:09:55.774Z,273.1
2024-02-21T07:15:26.480Z,250.9
2024-02-21T07:20:58.118Z,225.1
2024-02-21T07:26:29.830Z,135.1
2024-02-21T07:32:02.530Z,208.5
2024-02-21T07:37:33.953Z,265.8
2024-02-21T07:43:04.635Z,350.4
2024-02-21T07:48:37.038Z,265.3
2024-02-21T07:54:17.889Z,223.8
2024-02-21T07:59:45.941Z,281.0
2024-02-21T08:05:17.626Z,276.5
2024-02-21T08:10:49.278Z,408.6
2024-02-21T08:16:20.874Z,329.2
2024-02-21T08:22:17.549Z,271.9
2024-02-21T08:27:49.121Z,383.1
2024-02-21T08:33:21.011Z,418.9
2024-02-21T08:38:52.319Z,377.4
2024-02-21T08:44:24.015Z,349.4
2024-02-21T08:49:58.275Z,482.0
2024-02-21T08:55:31.815Z,340.1
2024-02-21T09:01:03.270Z,282.2
2024-02-21T09:06:35.469Z,333.2
2024-02-21T09:12:06.712Z,195.3
2024-02-21T09:17:38.194Z,246.8
2024-02-21T09:23:09.896Z,292.5
2024-02-21T09:28:41.607Z,294.3
2024-02-21T09:34:13.390Z,245.1
2024-02-21T09:39:44.649Z,493.1
2024-02-21T09:45:16.603Z,324.9
2024-02-21T09:50:47.889Z,202.6
2024-02-21T09:56:24.116Z,154.2
2024-02-21T10:01:55.850Z,129.1
2024-02-21T10:07:27.260Z,126.2
2024-02-21T10:12:58.756Z,92.8
2024-02-21T10:18:30.656Z,64.1
2024-02-21T10:24:02.145Z,74.0
2024-02-21T10:29:33.675Z,66.2
2024-02-21T10:35:05.312Z,80.4
2024-02-21T10:40:37.249Z,77.3
2024-02-21T10:46:08.581Z,61.3
2024-02-21T10:51:40.177Z,66.6
2024-02-21T10:57:16.192Z,49.4
2024-02-21T11:02:47.794Z,64.5
2024-02-21T11:08:19.515Z,57.1
2024-02-21T11:13:51.293Z,45.1
2024-02-21T11:19:22.978Z,47.2
2024-02-21T11:24:54.472Z,36.6
2024-02-21T11:30:25.952Z,33.0
2024-02-21T11:35:57.540Z,28.5
2024-02-21T11:41:29.355Z,78.9
2024-02-21T11:47:01.696Z,49.5
2024-02-21T11:52:33.143Z,42.3
2024-02-21T11:58:08.547Z,46.5
2024-02-21T12:03:40.098Z,46.5
2024-02-21T12:09:11.878Z,33.3
2024-02-21T12:14:43.504Z,51.3
2024-02-21T12:20:15.959Z,40.3
2024-02-21T12:25:46.861Z,43.5
2024-02-21T12:31:18.291Z,48.9
2024-02-21T12:36:50.169Z,40.3
2024-02-21T12:42:21.507Z,39.2
2024-02-21T12:47:53.203Z,42.6
2024-02-21T12:53:33.635Z,51.4
2024-02-21T12:59:00.998Z,58.1
2024-02-21T13:04:32.521Z,45.8
2024-02-21T13:10:03.981Z,41.9
2024-02-21T13:15:35.638Z,34.6
2024-02-21T13:21:07.305Z,62.8
2024-02-21T13:26:38.992Z,72.8
2024-02-21T13:32:10.699Z,65.3
2024-02-21T13:37:42.261Z,59.9
2024-02-21T13:43:13.834Z,56.1
2024-02-21T13:48:45.606Z,59.8
2024-02-21T13:54:17.517Z,41.0
2024-02-21T13:59:53.131Z,107.6
2024-02-21T14:05:24.809Z,75.4
2024-02-21T14:10:56.656Z,192.4
2024-02-21T14:16:28.573Z,71.3
2024-02-21T14:21:59.581Z,67.4
2024-02-21T14:27:31.288Z,62.5
2024-02-21T14:33:03.016Z,97.6
2024-02-21T14:38:34.966Z,98.0
2024-02-21T14:44:06.213Z,98.6
2024-02-21T14:49:37.981Z,89.9
2024-02-21T14:55:09.386Z,183.1
2024-02-21T15:00:45.409Z,270.6
2024-02-21T15:06:17.180Z,250.8
2024-02-21T15:11:48.995Z,333.7
2024-02-21T15:17:20.638Z,508.9
2024-02-21T15:22:51.989Z,739.3
2024-02-21T15:28:23.685Z,876.0
2024-02-21T15:33:55.831Z,786.5
2024-02-21T15:39:26.911Z,873.9
2024-02-21T15:44:58.488Z,865.7
2024-02-21T15:50:30.455Z,768.2
2024-02-21T15:56:02.176Z,733.9
2024-02-21T16:01:38.318Z,639.2
2024-02-21T16:07:09.502Z,831.6
2024-02-21T16:12:41.160Z,1138.6
2024-02-21T16:18:12.766Z,700.9
2024-02-21T16:23:44.391Z,615.0
2024-02-21T16:29:15.919Z,701.3
2024-02-21T16:34:47.775Z,633.9
2024-02-21T16:40:19.866Z,614.4
2024-02-21T16:45:50.823Z,572.5
2024-02-21T16:51:22.703Z,618.1
2024-02-21T16:56:54.085Z,580.8
2024-02-21T17:02:39.703Z,549.4
2024-02-21T17:08:06.047Z,597.0
2024-02-21T17:13:36.352Z,558.0
2024-02-21T17:19:07.888Z,591.3
2024-02-21T17:24:38.812Z,602.6
2024-02-21T17:30:10.500Z,422.7
2024-02-21T17:35:41.833Z,553.1
2024-02-21T17:41:13.587Z,513.5
2024-02-21T17:46:45.333Z,561.3
2024-02-21T17:52:17.405Z,552.3
2024-02-21T17:57:48.333Z,537.4
2024-02-21T18:03:24.525Z,587.8
2024-02-21T18:08:56.101Z,545.2
2024-02-21T18:14:27.696Z,522.5
2024-02-21T18:20:01.656Z,560.9
2024-02-21T18:25:31.100Z,604.8
2024-02-21T18:31:03.453Z,528.1
2024-02-21T18:36:34.333Z,613.5
2024-02-21T18:42:06.797Z,659.0
2024-02-21T18:47:37.539Z,1044.2
2024-02-21T18:53:09.355Z,1171.1
2024-02-21T18:58:40.820Z,862.4
2024-02-21T19:04:16.824Z,643.0
2024-02-21T19:09:48.578Z,206.9
2024-02-21T19:15:20.501Z,581.5
2024-02-21T19:20:51.661Z,746.4
2024-02-21T19:26:23.294Z,1071.8
2024-02-21T19:31:54.949Z,529.5
2024-02-21T19:37:27.583Z,674.2
2024-02-21T19:42:58.031Z,625.8
2024-02-21T19:48:30.034Z,885.3
2024-02-21T19:54:19.996Z,669.5
2024-02-21T19:59:32.998Z,795.5
2024-02-21T20:05:09.230Z,682.4
2024-02-21T20:10:41.210Z,342.6
2024-02-21T20:16:12.211Z,724.4
2024-02-21T20:21:43.935Z,514.5
2024-02-21T20:27:15.412Z,526.6
2024-02-21T20:32:47.374Z,558.6
2024-02-21T20:38:18.928Z,657.1
2024-02-21T20:43:50.508Z,640.2
2024-02-21T20:49:22.232Z,664.8
2024-02-21T20:54:53.709Z,623.8
2024-02-21T21:00:25.220Z,407.3
2024-02-21T21:06:01.931Z,536.2
2024-02-21T21:11:46.723Z,603.0
2024-02-21T21:17:04.937Z,518.7
2024-02-21T21:22:36.370Z,633.3
2024-02-21T21:28:07.821Z,551.0
2024-02-21T21:33:39.588Z,531.3
2024-02-21T21:39:11.624Z,978.5
2024-02-21T21:44:42.684Z,192.9
2024-02-21T21:50:14.588Z,643.1
2024-02-21T21:55:45.980Z,635.6
2024-02-21T22:01:17.717Z,812.3
2024-02-21T22:06:55.761Z,111.2
2024-02-21T22:12:27.574Z,668.8
2024-02-21T22:17:59.059Z,667.7
2024-02-21T22:23:30.586Z,770.1
2024-02-21T22:29:02.339Z,683.9
2024-02-21T22:34:34.341Z,596.0
2024-02-21T22:40:05.479Z,628.2
2024-02-21T22:45:37.132Z,567.6
2024-02-21T22:51:08.750Z,646.1
2024-02-21T22:56:40.486Z,864.7
2024-02-21T23:02:12.220Z,609.4
2024-02-21T23:07:48.081Z,654.1
2024-02-21T23:13:19.645Z,532.1
2024-02-21T23:18:51.250Z,1117.7
2024-02-21T23:24:23.373Z,981.4
2024-02-21T23:29:54.528Z,931.8
2024-02-21T23:35:26.166Z,1061.2
2024-02-21T23:40:58.384Z,873.1
2024-02-21T23:46:29.466Z,880.3
2024-02-21T23:52:01.464Z,843.2
2024-02-21T23:57:32.821Z,913.0
